sensor_id;sensor_type;location;lat;lon;timestamp;pressure;altitude;pressure_sealevel;temperature;humidity
21863;BME280;11096;51.338;12.524;2023-07-13T00:01:44;99806.16;;;20.94;53.52
21863;BME280;11096;51.338;12.524;2023-07-13T00:04:11;99804.38;;;20.95;54.13
21863;BME280;11096;51.338;12.524;2023-07-13T00:06:37;99800.16;;;20.86;54.78
21863;BME280;11096;51.338;12.524;2023-07-13T00:09:02;99806.47;;;20.99;53.89
21863;BME280;11096;51.338;12.524;2023-07-13T00:11:28;99800.53;;;20.97;53.11
21863;BME280;11096;51.338;12.524;2023-07-13T00:13:53;99805.47;;;21.00;52.38
21863;BME280;11096;51.338;12.524;2023-07-13T00:16:19;99820.50;;;21.00;52.83
21863;BME280;11096;51.338;12.524;2023-07-13T00:18:45;99830.13;;;20.93;53.79
21863;BME280;11096;51.338;12.524;2023-07-13T00:21:11;99837.84;;;20.79;55.60
21863;BME280;11096;51.338;12.524;2023-07-13T00:23:38;99850.97;;;20.73;55.68
21863;BME280;11096;51.338;12.524;2023-07-13T00:26:07;99846.72;;;21.01;54.36
21863;BME280;11096;51.338;12.524;2023-07-13T00:28:34;99848.66;;;21.08;53.38
21863;BME280;11096;51.338;12.524;2023-07-13T00:31:00;99842.56;;;21.07;53.03
21863;BME280;11096;51.338;12.524;2023-07-13T00:33:27;99835.81;;;21.19;53.31
21863;BME280;11096;51.338;12.524;2023-07-13T00:35:54;99856.44;;;21.39;52.62
21863;BME280;11096;51.338;12.524;2023-07-13T00:38:20;99861.13;;;21.58;51.95
21863;BME280;11096;51.338;12.524;2023-07-13T00:40:45;99851.41;;;21.59;51.48
21863;BME280;11096;51.338;12.524;2023-07-13T00:43:15;99845.38;;;21.35;52.83
21863;BME280;11096;51.338;12.524;2023-07-13T00:48:14;99864.94;;;21.71;53.30
21863;BME280;11096;51.338;12.524;2023-07-13T00:50:41;99871.63;;;21.37;53.87
21863;BME280;11096;51.338;12.524;2023-07-13T00:53:08;99872.34;;;21.16;54.46
21863;BME280;11096;51.338;12.524;2023-07-13T00:55:35;99875.78;;;21.16;54.31
21863;BME280;11096;51.338;12.524;2023-07-13T00:58:01;99879.72;;;21.20;53.90
21863;BME280;11096;51.338;12.524;2023-07-13T01:00:29;99877.44;;;21.02;54.06
21863;BME280;11096;51.338;12.524;2023-07-13T01:02:54;99873.78;;;21.04;53.33
21863;BME280;11096;51.338;12.524;2023-07-13T01:05:21;99868.06;;;21.30;52.03
21863;BME280;11096;51.338;12.524;2023-07-13T01:07:49;99872.28;;;21.24;52.48
21863;BME280;11096;51.338;12.524;2023-07-13T01:10:15;99872.06;;;21.26;52.07
21863;BME280;11096;51.338;12.524;2023-07-13T01:12:41;99862.00;;;21.44;51.67
21863;BME280;11096;51.338;12.524;2023-07-13T01:15:36;99853.41;;;21.27;52.61
21863;BME280;11096;51.338;12.524;2023-07-13T01:18:03;99860.84;;;21.38;52.67
21863;BME280;11096;51.338;12.524;2023-07-13T01:20:30;99855.44;;;21.40;52.87
21863;BME280;11096;51.338;12.524;2023-07-13T01:22:56;99849.69;;;21.51;51.90
21863;BME280;11096;51.338;12.524;2023-07-13T01:25:22;99849.94;;;21.56;50.47
21863;BME280;11096;51.338;12.524;2023-07-13T01:27:47;99854.41;;;21.41;50.05
21863;BME280;11096;51.338;12.524;2023-07-13T01:30:13;99851.56;;;21.57;48.64
21863;BME280;11096;51.338;12.524;2023-07-13T01:32:38;99854.50;;;21.62;48.37
21863;BME280;11096;51.338;12.524;2023-07-13T01:35:07;99851.13;;;21.69;47.57
21863;BME280;11096;51.338;12.524;2023-07-13T01:37:32;99859.63;;;21.49;47.34
21863;BME280;11096;51.338;12.524;2023-07-13T01:39:59;99869.94;;;21.44;47.58
21863;BME280;11096;51.338;12.524;2023-07-13T01:42:24;99870.19;;;21.49;47.38
21863;BME280;11096;51.338;12.524;2023-07-13T01:44:50;99860.25;;;21.36;47.53
21863;BME280;11096;51.338;12.524;2023-07-13T01:47:15;99857.25;;;21.39;47.47
21863;BME280;11096;51.338;12.524;2023-07-13T01:49:41;99855.69;;;21.45;47.16
21863;BME280;11096;51.338;12.524;2023-07-13T01:52:07;99851.03;;;21.47;47.26
21863;BME280;11096;51.338;12.524;2023-07-13T01:54:32;99851.72;;;21.71;47.22
21863;BME280;11096;51.338;12.524;2023-07-13T01:56:59;99851.28;;;21.67;47.02
21863;BME280;11096;51.338;12.524;2023-07-13T01:59:24;99847.63;;;21.38;47.71
21863;BME280;11096;51.338;12.524;2023-07-13T02:01:50;99854.66;;;21.31;47.75
21863;BME280;11096;51.338;12.524;2023-07-13T02:04:15;99862.13;;;20.98;48.13
21863;BME280;11096;51.338;12.524;2023-07-13T02:06:40;99862.66;;;20.93;48.51
21863;BME280;11096;51.338;12.524;2023-07-13T02:09:06;99878.25;;;21.03;48.50
21863;BME280;11096;51.338;12.524;2023-07-13T02:11:33;99870.88;;;21.13;48.29
21863;BME280;11096;51.338;12.524;2023-07-13T02:14:02;99873.63;;;21.20;48.06
21863;BME280;11096;51.338;12.524;2023-07-13T02:16:28;99877.06;;;21.06;48.46
21863;BME280;11096;51.338;12.524;2023-07-13T02:18:54;99870.97;;;21.05;48.33
21863;BME280;11096;51.338;12.524;2023-07-13T02:21:21;99881.19;;;21.38;48.37
21863;BME280;11096;51.338;12.524;2023-07-13T02:23:47;99875.91;;;21.38;47.67
21863;BME280;11096;51.338;12.524;2023-07-13T02:26:12;99875.72;;;21.25;48.55
21863;BME280;11096;51.338;12.524;2023-07-13T02:28:38;99873.72;;;21.27;49.12
21863;BME280;11096;51.338;12.524;2023-07-13T02:31:12;99870.97;;;21.20;49.27
21863;BME280;11096;51.338;12.524;2023-07-13T02:33:38;99875.25;;;21.21;49.26
21863;BME280;11096;51.338;12.524;2023-07-13T02:36:04;99879.81;;;21.12;49.49
21863;BME280;11096;51.338;12.524;2023-07-13T02:38:31;99880.63;;;21.13;49.63
21863;BME280;11096;51.338;12.524;2023-07-13T02:40:59;99886.63;;;21.21;49.51
21863;BME280;11096;51.338;12.524;2023-07-13T02:43:24;99887.75;;;21.27;49.60
21863;BME280;11096;51.338;12.524;2023-07-13T02:45:49;99891.66;;;21.31;49.23
21863;BME280;11096;51.338;12.524;2023-07-13T02:48:15;99885.66;;;21.22;49.21
21863;BME280;11096;51.338;12.524;2023-07-13T02:50:40;99880.72;;;21.19;49.20
21863;BME280;11096;51.338;12.524;2023-07-13T02:53:06;99882.50;;;21.04;49.66
21863;BME280;11096;51.338;12.524;2023-07-13T02:55:31;99885.53;;;21.01;49.80
21863;BME280;11096;51.338;12.524;2023-07-13T02:57:57;99875.44;;;21.05;49.61
21863;BME280;11096;51.338;12.524;2023-07-13T03:00:23;99867.50;;;21.05;49.65
21863;BME280;11096;51.338;12.524;2023-07-13T03:02:48;99863.84;;;20.91;50.05
21863;BME280;11096;51.338;12.524;2023-07-13T03:05:15;99859.53;;;20.75;50.39
21863;BME280;11096;51.338;12.524;2023-07-13T03:07:41;99876.81;;;20.63;50.74
21863;BME280;11096;51.338;12.524;2023-07-13T03:10:07;99881.59;;;20.59;51.16
21863;BME280;11096;51.338;12.524;2023-07-13T03:12:33;99879.81;;;20.51;51.40
21863;BME280;11096;51.338;12.524;2023-07-13T03:14:58;99869.63;;;20.48;51.49
21863;BME280;11096;51.338;12.524;2023-07-13T03:17:24;99879.81;;;20.28;51.97
21863;BME280;11096;51.338;12.524;2023-07-13T03:19:49;99875.53;;;20.27;52.19
21863;BME280;11096;51.338;12.524;2023-07-13T03:22:19;99873.94;;;20.18;52.39
21863;BME280;11096;51.338;12.524;2023-07-13T03:24:45;99885.84;;;19.83;53.10
21863;BME280;11096;51.338;12.524;2023-07-13T03:27:10;99890.69;;;20.02;53.13
21863;BME280;11096;51.338;12.524;2023-07-13T03:29:36;99892.66;;;20.00;53.24
21863;BME280;11096;51.338;12.524;2023-07-13T03:32:01;99900.41;;;20.02;53.36
21863;BME280;11096;51.338;12.524;2023-07-13T03:34:27;99906.47;;;20.10;53.30
21863;BME280;11096;51.338;12.524;2023-07-13T03:36:55;99909.22;;;20.17;53.27
21863;BME280;11096;51.338;12.524;2023-07-13T03:39:21;99909.38;;;20.24;53.26
21863;BME280;11096;51.338;12.524;2023-07-13T03:41:46;99919.34;;;20.36;52.97
21863;BME280;11096;51.338;12.524;2023-07-13T03:44:12;99915.69;;;20.37;53.06
21863;BME280;11096;51.338;12.524;2023-07-13T03:46:37;99912.94;;;20.31;53.13
21863;BME280;11096;51.338;12.524;2023-07-13T03:49:05;99915.47;;;20.24;53.57
21863;BME280;11096;51.338;12.524;2023-07-13T03:51:30;99917.16;;;20.17;53.85
21863;BME280;11096;51.338;12.524;2023-07-13T03:53:56;99916.13;;;20.18;53.78
21863;BME280;11096;51.338;12.524;2023-07-13T03:56:22;99927.88;;;20.15;54.04
21863;BME280;11096;51.338;12.524;2023-07-13T03:58:49;99929.00;;;20.21;53.99
21863;BME280;11096;51.338;12.524;2023-07-13T04:01:16;99934.94;;;20.23;54.00
21863;BME280;11096;51.338;12.524;2023-07-13T04:03:42;99938.31;;;20.09;54.48
21863;BME280;11096;51.338;12.524;2023-07-13T04:06:17;99940.38;;;20.22;54.35
21863;BME280;11096;51.338;12.524;2023-07-13T04:08:48;99932.06;;;21.40;52.97
21863;BME280;11096;51.338;12.524;2023-07-13T04:11:14;99935.91;;;20.53;53.38
21863;BME280;11096;51.338;12.524;2023-07-13T04:13:40;99942.09;;;20.37;54.10
21863;BME280;11096;51.338;12.524;2023-07-13T04:16:05;99935.84;;;20.30;54.42
21863;BME280;11096;51.338;12.524;2023-07-13T04:18:31;99936.09;;;20.21;54.88
21863;BME280;11096;51.338;12.524;2023-07-13T04:20:56;99938.84;;;20.27;54.97
21863;BME280;11096;51.338;12.524;2023-07-13T04:23:22;99936.81;;;20.37;54.63
21863;BME280;11096;51.338;12.524;2023-07-13T04:25:49;99937.75;;;20.45;54.58
21863;BME280;11096;51.338;12.524;2023-07-13T04:28:16;99943.38;;;20.42;55.01
21863;BME280;11096;51.338;12.524;2023-07-13T04:30:43;99945.03;;;20.43;54.73
21863;BME280;11096;51.338;12.524;2023-07-13T04:33:08;99944.03;;;20.44;54.75
21863;BME280;11096;51.338;12.524;2023-07-13T04:35:34;99934.41;;;20.59;54.70
21863;BME280;11096;51.338;12.524;2023-07-13T04:38:00;99941.19;;;20.22;55.29
21863;BME280;11096;51.338;12.524;2023-07-13T04:40:27;99929.41;;;20.64;54.53
21863;BME280;11096;51.338;12.524;2023-07-13T04:42:53;99941.91;;;20.70;54.62
21863;BME280;11096;51.338;12.524;2023-07-13T04:45:18;99935.69;;;20.63;54.75
21863;BME280;11096;51.338;12.524;2023-07-13T04:47:44;99939.50;;;20.84;54.51
21863;BME280;11096;51.338;12.524;2023-07-13T04:50:09;99942.84;;;20.77;54.37
21863;BME280;11096;51.338;12.524;2023-07-13T04:52:40;99945.00;;;20.74;54.88
21863;BME280;11096;51.338;12.524;2023-07-13T04:55:07;99944.78;;;20.84;54.27
21863;BME280;11096;51.338;12.524;2023-07-13T04:57:33;99953.22;;;21.02;54.33
21863;BME280;11096;51.338;12.524;2023-07-13T04:59:58;99946.97;;;20.80;54.55
21863;BME280;11096;51.338;12.524;2023-07-13T05:02:26;99946.44;;;21.22;54.12
21863;BME280;11096;51.338;12.524;2023-07-13T05:04:53;99943.94;;;21.44;53.46
21863;BME280;11096;51.338;12.524;2023-07-13T05:07:18;99938.34;;;21.24;52.87
21863;BME280;11096;51.338;12.524;2023-07-13T05:09:44;99947.78;;;21.18;53.71
21863;BME280;11096;51.338;12.524;2023-07-13T05:12:09;99942.06;;;21.30;53.31
21863;BME280;11096;51.338;12.524;2023-07-13T05:14:35;99949.47;;;21.34;52.92
21863;BME280;11096;51.338;12.524;2023-07-13T05:17:00;99949.94;;;21.53;52.55
21863;BME280;11096;51.338;12.524;2023-07-13T05:19:26;99957.88;;;21.68;52.27
21863;BME280;11096;51.338;12.524;2023-07-13T05:21:51;99956.03;;;21.98;51.70
21863;BME280;11096;51.338;12.524;2023-07-13T05:24:16;99950.38;;;22.16;51.68
21863;BME280;11096;51.338;12.524;2023-07-13T05:26:42;99950.47;;;22.07;51.40
21863;BME280;11096;51.338;12.524;2023-07-13T05:29:07;99949.47;;;22.08;51.64
21863;BME280;11096;51.338;12.524;2023-07-13T05:31:33;99950.97;;;22.47;51.05
21863;BME280;11096;51.338;12.524;2023-07-13T05:33:58;99957.41;;;23.03;49.37
21863;BME280;11096;51.338;12.524;2023-07-13T05:36:23;99960.03;;;23.24;48.62
21863;BME280;11096;51.338;12.524;2023-07-13T05:38:49;99965.63;;;23.43;48.14
21863;BME280;11096;51.338;12.524;2023-07-13T05:41:14;99956.13;;;23.55;47.51
21863;BME280;11096;51.338;12.524;2023-07-13T05:43:39;99961.19;;;23.50;47.81
21863;BME280;11096;51.338;12.524;2023-07-13T05:46:05;99965.84;;;23.41;47.58
21863;BME280;11096;51.338;12.524;2023-07-13T05:48:30;99958.66;;;23.63;47.78
21863;BME280;11096;51.338;12.524;2023-07-13T05:50:55;99959.75;;;23.75;46.71
21863;BME280;11096;51.338;12.524;2023-07-13T05:53:21;99966.75;;;23.90;46.93
21863;BME280;11096;51.338;12.524;2023-07-13T05:55:47;99967.94;;;23.81;47.11
21863;BME280;11096;51.338;12.524;2023-07-13T05:58:16;99971.50;;;24.56;45.39
21863;BME280;11096;51.338;12.524;2023-07-13T06:00:42;99957.41;;;24.55;45.25
21863;BME280;11096;51.338;12.524;2023-07-13T06:03:07;99964.16;;;24.58;45.09
21863;BME280;11096;51.338;12.524;2023-07-13T06:05:34;99959.06;;;24.63;45.10
21863;BME280;11096;51.338;12.524;2023-07-13T06:08:01;99957.25;;;24.77;44.65
21863;BME280;11096;51.338;12.524;2023-07-13T06:10:26;99963.78;;;24.88;44.22
21863;BME280;11096;51.338;12.524;2023-07-13T06:12:51;99959.69;;;25.05;43.82
21863;BME280;11096;51.338;12.524;2023-07-13T06:15:17;99961.38;;;25.33;43.40
21863;BME280;11096;51.338;12.524;2023-07-13T06:17:43;99962.56;;;25.10;43.61
21863;BME280;11096;51.338;12.524;2023-07-13T06:20:09;99959.50;;;24.87;44.13
21863;BME280;11096;51.338;12.524;2023-07-13T06:22:35;99961.34;;;24.99;43.76
21863;BME280;11096;51.338;12.524;2023-07-13T06:25:00;99962.16;;;25.06;43.34
21863;BME280;11096;51.338;12.524;2023-07-13T06:27:26;99965.84;;;25.45;43.03
21863;BME280;11096;51.338;12.524;2023-07-13T06:29:51;99963.84;;;25.21;42.54
21863;BME280;11096;51.338;12.524;2023-07-13T06:32:16;99967.69;;;25.25;42.73
21863;BME280;11096;51.338;12.524;2023-07-13T06:34:42;99963.38;;;25.51;41.95
21863;BME280;11096;51.338;12.524;2023-07-13T06:37:09;99969.31;;;25.46;42.13
21863;BME280;11096;51.338;12.524;2023-07-13T06:39:34;99965.44;;;25.42;42.09
21863;BME280;11096;51.338;12.524;2023-07-13T06:41:59;99977.28;;;25.53;41.39
21863;BME280;11096;51.338;12.524;2023-07-13T06:44:25;99970.13;;;26.63;39.82
21863;BME280;11096;51.338;12.524;2023-07-13T06:46:50;99965.41;;;28.63;35.81
21863;BME280;11096;51.338;12.524;2023-07-13T06:49:15;99970.94;;;28.50;35.43
21863;BME280;11096;51.338;12.524;2023-07-13T06:51:41;99969.50;;;27.25;36.77
21863;BME280;11096;51.338;12.524;2023-07-13T06:54:06;99980.66;;;27.08;37.88
21863;BME280;11096;51.338;12.524;2023-07-13T06:56:31;99967.84;;;26.67;37.97
21863;BME280;11096;51.338;12.524;2023-07-13T06:58:57;99976.31;;;26.12;38.08
21863;BME280;11096;51.338;12.524;2023-07-13T07:01:25;99978.81;;;26.07;38.68
21863;BME280;11096;51.338;12.524;2023-07-13T07:03:51;99982.53;;;26.38;38.98
21863;BME280;11096;51.338;12.524;2023-07-13T07:06:19;99995.91;;;25.53;40.60
21863;BME280;11096;51.338;12.524;2023-07-13T07:08:45;99991.50;;;26.05;38.90
21863;BME280;11096;51.338;12.524;2023-07-13T07:11:18;99989.69;;;26.44;38.05
21863;BME280;11096;51.338;12.524;2023-07-13T07:13:44;99986.03;;;27.02;37.65
21863;BME280;11096;51.338;12.524;2023-07-13T07:16:10;99991.44;;;29.80;34.60
21863;BME280;11096;51.338;12.524;2023-07-13T07:18:35;99976.16;;;31.46;30.33
21863;BME280;11096;51.338;12.524;2023-07-13T07:21:01;99989.34;;;28.69;33.61
21863;BME280;11096;51.338;12.524;2023-07-13T07:23:27;99995.03;;;28.61;34.74
21863;BME280;11096;51.338;12.524;2023-07-13T07:25:53;99995.53;;;28.82;34.09
21863;BME280;11096;51.338;12.524;2023-07-13T07:28:18;99992.09;;;28.51;34.57
21863;BME280;11096;51.338;12.524;2023-07-13T07:30:45;99990.84;;;27.87;34.83
21863;BME280;11096;51.338;12.524;2023-07-13T07:33:10;99994.97;;;27.39;35.06
21863;BME280;11096;51.338;12.524;2023-07-13T07:35:36;99991.59;;;27.69;35.10
21863;BME280;11096;51.338;12.524;2023-07-13T07:38:02;99986.81;;;29.17;33.44
21863;BME280;11096;51.338;12.524;2023-07-13T07:40:27;99983.34;;;32.83;28.89
21863;BME280;11096;51.338;12.524;2023-07-13T07:42:53;99989.25;;;30.75;29.53
21863;BME280;11096;51.338;12.524;2023-07-13T07:45:19;99997.66;;;28.92;32.04
21863;BME280;11096;51.338;12.524;2023-07-13T07:47:44;99998.78;;;28.42;33.00
21863;BME280;11096;51.338;12.524;2023-07-13T07:50:10;99995.38;;;28.53;33.63
21863;BME280;11096;51.338;12.524;2023-07-13T07:52:36;99999.66;;;26.62;36.81
21863;BME280;11096;51.338;12.524;2023-07-13T07:55:01;100003.63;;;27.09;37.37
21863;BME280;11096;51.338;12.524;2023-07-13T07:57:27;100001.13;;;27.83;37.13
21863;BME280;11096;51.338;12.524;2023-07-13T07:59:52;100002.69;;;27.72;36.61
21863;BME280;11096;51.338;12.524;2023-07-13T08:02:18;100010.81;;;27.84;36.72
21863;BME280;11096;51.338;12.524;2023-07-13T08:04:43;100010.19;;;27.82;36.03
21863;BME280;11096;51.338;12.524;2023-07-13T08:07:09;100004.03;;;29.56;34.36
21863;BME280;11096;51.338;12.524;2023-07-13T08:09:34;99995.84;;;32.40;30.17
21863;BME280;11096;51.338;12.524;2023-07-13T08:12:00;100004.81;;;30.61;31.05
21863;BME280;11096;51.338;12.524;2023-07-13T08:14:25;100000.75;;;29.89;33.00
21863;BME280;11096;51.338;12.524;2023-07-13T08:16:50;100006.31;;;29.88;32.60
21863;BME280;11096;51.338;12.524;2023-07-13T08:19:16;100012.53;;;29.29;32.76
21863;BME280;11096;51.338;12.524;2023-07-13T08:21:41;100012.50;;;29.06;32.36
21863;BME280;11096;51.338;12.524;2023-07-13T08:24:10;100006.19;;;29.00;32.53
21863;BME280;11096;51.338;12.524;2023-07-13T08:26:35;100015.34;;;28.51;34.10
21863;BME280;11096;51.338;12.524;2023-07-13T08:29:02;100014.13;;;28.65;33.90
21863;BME280;11096;51.338;12.524;2023-07-13T08:31:28;100015.44;;;28.86;33.95
21863;BME280;11096;51.338;12.524;2023-07-13T08:33:56;100018.34;;;29.50;33.55
21863;BME280;11096;51.338;12.524;2023-07-13T08:36:22;100005.66;;;29.33;33.20
21863;BME280;11096;51.338;12.524;2023-07-13T08:38:47;100004.97;;;29.50;32.46
21863;BME280;11096;51.338;12.524;2023-07-13T08:41:17;100000.31;;;31.29;30.46
21863;BME280;11096;51.338;12.524;2023-07-13T08:43:47;99994.78;;;35.25;24.87
21863;BME280;11096;51.338;12.524;2023-07-13T08:46:16;99990.88;;;37.59;21.42
21863;BME280;11096;51.338;12.524;2023-07-13T08:48:53;99993.47;;;38.83;20.61
21863;BME280;11096;51.338;12.524;2023-07-13T08:54:16;99990.97;;;38.54;21.73
21863;BME280;11096;51.338;12.524;2023-07-13T08:56:44;99987.63;;;39.91;19.40
21863;BME280;11096;51.338;12.524;2023-07-13T08:59:14;99985.16;;;39.54;19.45
21863;BME280;11096;51.338;12.524;2023-07-13T09:02:27;99987.47;;;37.43;20.74
21863;BME280;11096;51.338;12.524;2023-07-13T09:04:58;99987.19;;;38.69;19.66
21863;BME280;11096;51.338;12.524;2023-07-13T09:10:20;99982.75;;;38.40;20.45
21863;BME280;11096;51.338;12.524;2023-07-13T09:15:43;99989.75;;;32.22;25.81
21863;BME280;11096;51.338;12.524;2023-07-13T09:20:57;100001.44;;;35.53;24.28
21863;BME280;11096;51.338;12.524;2023-07-13T09:23:28;99988.53;;;35.04;22.69
21863;BME280;11096;51.338;12.524;2023-07-13T09:26:01;99994.94;;;32.56;25.31
21863;BME280;11096;51.338;12.524;2023-07-13T09:28:29;99992.88;;;34.84;23.87
21863;BME280;11096;51.338;12.524;2023-07-13T09:33:24;99998.88;;;30.59;27.92
21863;BME280;11096;51.338;12.524;2023-07-13T09:35:50;99991.00;;;29.13;29.17
21863;BME280;11096;51.338;12.524;2023-07-13T09:38:17;99987.63;;;30.16;28.47
21863;BME280;11096;51.338;12.524;2023-07-13T09:40:53;99992.38;;;32.99;25.39
21863;BME280;11096;51.338;12.524;2023-07-13T09:43:22;99995.13;;;30.89;26.67
21863;BME280;11096;51.338;12.524;2023-07-13T09:45:47;99991.75;;;30.65;26.98
21863;BME280;11096;51.338;12.524;2023-07-13T09:48:14;99988.31;;;30.52;27.86
21863;BME280;11096;51.338;12.524;2023-07-13T09:50:41;99996.03;;;31.89;27.10
21863;BME280;11096;51.338;12.524;2023-07-13T09:53:15;99990.88;;;37.59;21.51
21863;BME280;11096;51.338;12.524;2023-07-13T09:55:43;99985.91;;;41.31;18.54
21863;BME280;11096;51.338;12.524;2023-07-13T09:58:21;99984.44;;;41.25;17.61
21863;BME280;11096;51.338;12.524;2023-07-13T10:01:14;99973.53;;;42.78;15.85
21863;BME280;11096;51.338;12.524;2023-07-13T10:03:52;99972.78;;;41.41;17.51
21863;BME280;11096;51.338;12.524;2023-07-13T10:06:20;99976.66;;;41.49;17.40
21863;BME280;11096;51.338;12.524;2023-07-13T10:08:56;99970.06;;;35.67;21.08
21863;BME280;11096;51.338;12.524;2023-07-13T10:11:27;99979.19;;;33.40;24.02
21863;BME280;11096;51.338;12.524;2023-07-13T10:13:59;99975.34;;;31.29;26.12
21863;BME280;11096;51.338;12.524;2023-07-13T10:16:29;99993.09;;;31.47;25.49
21863;BME280;11096;51.338;12.524;2023-07-13T10:18:59;99991.09;;;30.17;27.88
21863;BME280;11096;51.338;12.524;2023-07-13T10:21:41;99990.50;;;29.86;28.07
21863;BME280;11096;51.338;12.524;2023-07-13T10:26:48;99998.69;;;29.32;29.00
21863;BME280;11096;51.338;12.524;2023-07-13T10:29:16;100003.97;;;28.97;29.80
21863;BME280;11096;51.338;12.524;2023-07-13T10:31:44;100011.34;;;29.25;29.55
21863;BME280;11096;51.338;12.524;2023-07-13T10:34:11;100011.25;;;29.44;29.62
21863;BME280;11096;51.338;12.524;2023-07-13T10:36:47;100005.44;;;34.12;25.16
21863;BME280;11096;51.338;12.524;2023-07-13T10:39:19;100000.97;;;34.95;23.63
21863;BME280;11096;51.338;12.524;2023-07-13T10:41:50;100002.91;;;36.00;22.01
21863;BME280;11096;51.338;12.524;2023-07-13T10:44:31;99997.94;;;39.39;19.39
21863;BME280;11096;51.338;12.524;2023-07-13T10:47:00;99995.97;;;41.22;17.32
21863;BME280;11096;51.338;12.524;2023-07-13T10:49:31;99992.53;;;40.17;17.98
21863;BME280;11096;51.338;12.524;2023-07-13T10:51:57;99985.44;;;41.37;17.58
21863;BME280;11096;51.338;12.524;2023-07-13T10:54:33;99985.34;;;37.40;20.43
21863;BME280;11096;51.338;12.524;2023-07-13T10:57:18;99982.38;;;36.44;21.05
21863;BME280;11096;51.338;12.524;2023-07-13T11:00:10;99991.63;;;34.04;23.55
21863;BME280;11096;51.338;12.524;2023-07-13T11:02:35;99993.81;;;32.25;26.02
21863;BME280;11096;51.338;12.524;2023-07-13T11:05:18;99994.31;;;33.03;25.74
21863;BME280;11096;51.338;12.524;2023-07-13T11:08:31;99995.84;;;34.73;23.96
21863;BME280;11096;51.338;12.524;2023-07-13T11:10:57;99986.13;;;35.28;23.41
21863;BME280;11096;51.338;12.524;2023-07-13T11:18:45;99989.47;;;33.43;24.39
21863;BME280;11096;51.338;12.524;2023-07-13T11:21:17;99989.53;;;36.69;22.02
21863;BME280;11096;51.338;12.524;2023-07-13T11:23:44;99981.72;;;36.62;21.79
21863;BME280;11096;51.338;12.524;2023-07-13T11:29:42;99982.09;;;34.79;21.40
21863;BME280;11096;51.338;12.524;2023-07-13T11:32:30;99984.25;;;36.09;21.01
21863;BME280;11096;51.338;12.524;2023-07-13T11:34:56;99983.00;;;36.75;20.00
21863;BME280;11096;51.338;12.524;2023-07-13T11:37:23;99975.63;;;33.82;21.79
21863;BME280;11096;51.338;12.524;2023-07-13T11:39:51;99977.69;;;34.22;21.40
21863;BME280;11096;51.338;12.524;2023-07-13T11:42:18;99972.94;;;33.82;22.41
21863;BME280;11096;51.338;12.524;2023-07-13T11:44:50;99965.97;;;33.91;22.63
21863;BME280;11096;51.338;12.524;2023-07-13T11:47:23;99961.78;;;35.33;21.37
21863;BME280;11096;51.338;12.524;2023-07-13T11:49:54;99965.59;;;35.01;21.36
21863;BME280;11096;51.338;12.524;2023-07-13T11:52:23;99972.22;;;32.69;23.55
21863;BME280;11096;51.338;12.524;2023-07-13T11:54:55;99967.28;;;31.67;24.25
21863;BME280;11096;51.338;12.524;2023-07-13T11:57:31;99976.00;;;31.97;24.76
21863;BME280;11096;51.338;12.524;2023-07-13T12:00:00;99973.53;;;32.12;24.61
21863;BME280;11096;51.338;12.524;2023-07-13T12:02:34;99981.97;;;32.80;24.38
21863;BME280;11096;51.338;12.524;2023-07-13T12:05:02;99978.28;;;32.86;23.73
21863;BME280;11096;51.338;12.524;2023-07-13T12:07:30;99976.38;;;32.27;23.96
21863;BME280;11096;51.338;12.524;2023-07-13T12:12:34;99973.50;;;31.12;25.44
21863;BME280;11096;51.338;12.524;2023-07-13T12:15:00;99970.31;;;30.65;25.71
21863;BME280;11096;51.338;12.524;2023-07-13T12:17:25;99968.97;;;31.52;25.62
21863;BME280;11096;51.338;12.524;2023-07-13T12:19:52;99971.97;;;33.45;23.45
21863;BME280;11096;51.338;12.524;2023-07-13T12:22:19;99959.94;;;34.77;21.42
21863;BME280;11096;51.338;12.524;2023-07-13T12:24:46;99960.56;;;33.91;22.07
21863;BME280;11096;51.338;12.524;2023-07-13T12:27:26;99970.50;;;32.95;22.43
21863;BME280;11096;51.338;12.524;2023-07-13T12:29:58;99968.31;;;35.12;20.62
21863;BME280;11096;51.338;12.524;2023-07-13T12:32:25;99965.97;;;36.99;18.66
21863;BME280;11096;51.338;12.524;2023-07-13T12:34:53;99966.84;;;37.23;18.59
21863;BME280;11096;51.338;12.524;2023-07-13T12:37:19;99969.28;;;36.22;18.90
21863;BME280;11096;51.338;12.524;2023-07-13T12:39:47;99955.56;;;36.03;18.87
21863;BME280;11096;51.338;12.524;2023-07-13T12:42:22;99964.50;;;33.15;20.71
21863;BME280;11096;51.338;12.524;2023-07-13T12:44:49;99953.91;;;34.09;20.96
21863;BME280;11096;51.338;12.524;2023-07-13T12:47:15;99961.19;;;35.46;20.01
21863;BME280;11096;51.338;12.524;2023-07-13T12:49:52;99964.13;;;35.65;19.52
21863;BME280;11096;51.338;12.524;2023-07-13T12:52:34;99953.06;;;35.52;19.92
21863;BME280;11096;51.338;12.524;2023-07-13T12:55:10;99954.53;;;35.13;19.75
21863;BME280;11096;51.338;12.524;2023-07-13T12:57:50;99962.63;;;34.41;20.74
21863;BME280;11096;51.338;12.524;2023-07-13T13:02:55;99952.88;;;34.15;20.65
21863;BME280;11096;51.338;12.524;2023-07-13T13:05:21;99965.19;;;34.00;20.16
21863;BME280;11096;51.338;12.524;2023-07-13T13:07:49;99965.72;;;33.02;21.18
21863;BME280;11096;51.338;12.524;2023-07-13T13:10:15;99971.59;;;32.35;21.83
21863;BME280;11096;51.338;12.524;2023-07-13T13:12:41;99965.38;;;33.26;21.44
21863;BME280;11096;51.338;12.524;2023-07-13T13:15:08;99957.50;;;33.14;20.32
21863;BME280;11096;51.338;12.524;2023-07-13T13:17:34;99961.03;;;33.20;21.35
21863;BME280;11096;51.338;12.524;2023-07-13T13:19:59;99959.28;;;33.46;21.83
21863;BME280;11096;51.338;12.524;2023-07-13T13:22:25;99964.72;;;33.08;21.81
21863;BME280;11096;51.338;12.524;2023-07-13T13:24:50;99956.25;;;31.64;22.40
21863;BME280;11096;51.338;12.524;2023-07-13T13:27:25;99971.94;;;32.16;22.77